createdAt,value
2022-08-08T00:01:06.628Z,3.10
2022-08-08T00:03:41.119Z,2.80
2022-08-08T00:06:13.257Z,3.50
2022-08-08T00:08:48.908Z,2.87
2022-08-08T00:11:20.088Z,3.10
2022-08-08T00:14:15.770Z,3.00
2022-08-08T00:16:40.965Z,3.57
2022-08-08T00:19:15.117Z,3.60
2022-08-08T00:21:46.114Z,3.20
2022-08-08T00:24:15.688Z,3.90
2022-08-08T00:26:45.393Z,3.03
2022-08-08T00:29:17.298Z,2.90
2022-08-08T00:32:28.459Z,3.00
2022-08-08T00:35:20.485Z,3.00
2022-08-08T00:38:01.838Z,3.33
2022-08-08T00:41:09.171Z,3.17
2022-08-08T00:43:45.849Z,2.60
2022-08-08T00:46:23.217Z,3.00
2022-08-08T00:49:05.248Z,2.73
2022-08-08T00:51:57.399Z,2.63
2022-08-08T00:54:42.458Z,2.90
2022-08-08T00:57:36.058Z,3.07
2022-08-08T01:00:09.274Z,2.80
2022-08-08T01:03:57.271Z,3.00
2022-08-08T01:06:16.390Z,3.00
2022-08-08T01:09:34.793Z,3.40
2022-08-08T01:12:37.083Z,3.30
2022-08-08T01:15:26.156Z,2.73
2022-08-08T01:18:50.800Z,3.53
2022-08-08T01:21:34.888Z,3.00
2022-08-08T01:24:33.833Z,3.10
2022-08-08T01:27:27.409Z,3.13
2022-08-08T01:30:27.801Z,3.37
2022-08-08T01:33:27.667Z,2.80
2022-08-08T01:36:23.003Z,3.23
2022-08-08T01:39:04.920Z,3.33
2022-08-08T01:41:38.503Z,3.20
2022-08-08T01:44:18.209Z,3.60
2022-08-08T01:46:52.459Z,2.97
2022-08-08T01:49:37.524Z,3.77
2022-08-08T01:52:51.470Z,2.90
2022-08-08T01:56:08.767Z,4.27
2022-08-08T01:58:13.822Z,4.10
2022-08-08T02:00:48.505Z,3.83
2022-08-08T02:03:55.311Z,4.10
2022-08-08T02:06:32.711Z,3.20
2022-08-08T02:09:18.808Z,3.40
2022-08-08T02:12:09.215Z,3.10
2022-08-08T02:14:49.916Z,3.33
2022-08-08T02:17:28.442Z,4.50
2022-08-08T02:20:16.223Z,4.00
2022-08-08T02:23:05.639Z,4.00
2022-08-08T02:25:46.952Z,4.30
2022-08-08T02:28:20.630Z,3.80
2022-08-08T02:31:04.505Z,3.73
2022-08-08T02:33:41.502Z,3.37
2022-08-08T02:36:38.494Z,3.97
2022-08-08T02:39:42.185Z,3.03
2022-08-08T02:42:38.457Z,3.80
2022-08-08T02:45:18.510Z,3.80
2022-08-08T02:48:04.860Z,3.50
2022-08-08T02:50:55.957Z,3.07
2022-08-08T02:53:32.966Z,3.97
2022-08-08T02:56:08.810Z,3.33
2022-08-08T02:58:59.504Z,3.50
2022-08-08T03:05:02.329Z,3.73
2022-08-08T03:07:41.426Z,3.60
2022-08-08T03:10:36.268Z,4.17
2022-08-08T03:15:53.900Z,3.47
2022-08-08T03:16:35.436Z,4.07
2022-08-08T03:19:20.046Z,3.83
2022-08-08T03:21:58.870Z,3.43
2022-08-08T03:24:30.088Z,3.80
2022-08-08T03:27:02.290Z,4.23
2022-08-08T03:29:54.638Z,3.57
2022-08-08T03:32:20.871Z,4.00
2022-08-08T03:34:56.790Z,3.57
2022-08-08T03:38:53.569Z,3.47
2022-08-08T03:40:29.153Z,3.90
2022-08-08T03:43:18.362Z,3.43
2022-08-08T03:46:05.789Z,3.60
2022-08-08T03:49:32.869Z,4.77
2022-08-08T03:51:40.595Z,4.13
2022-08-08T03:54:40.822Z,4.30
2022-08-08T03:58:30.676Z,4.20
2022-08-08T03:59:59.546Z,4.40
2022-08-08T04:02:51.635Z,4.57
2022-08-08T04:05:28.123Z,4.17
2022-08-08T04:07:58.643Z,3.40
2022-08-08T04:10:32.136Z,4.57
2022-08-08T04:13:03.872Z,4.10
2022-08-08T04:16:03.528Z,4.23
2022-08-08T04:18:44.562Z,4.63
2022-08-08T04:21:19.823Z,4.90
2022-08-08T04:24:05.722Z,4.70
2022-08-08T04:26:56.816Z,5.20
2022-08-08T04:29:27.073Z,4.63
2022-08-08T04:31:58.716Z,4.33
2022-08-08T04:34:31.941Z,4.63
2022-08-08T04:37:10.916Z,4.80
2022-08-08T04:40:06.116Z,5.40
2022-08-08T04:42:26.112Z,3.93
2022-08-08T04:44:54.727Z,4.60
2022-08-08T04:47:22.080Z,4.07
2022-08-08T04:50:00.678Z,3.83
2022-08-08T04:52:33.927Z,4.93
2022-08-08T04:55:05.806Z,4.20
2022-08-08T04:57:34.299Z,4.10
2022-08-08T05:00:04.867Z,3.93
2022-08-08T05:02:32.389Z,4.73
2022-08-08T05:05:00.081Z,4.10
2022-08-08T05:07:35.346Z,4.47
2022-08-08T05:10:12.948Z,5.20
2022-08-08T05:12:42.726Z,4.63
2022-08-08T05:15:13.648Z,4.80
2022-08-08T05:17:54.484Z,4.47
2022-08-08T05:20:24.487Z,4.67
2022-08-08T05:22:54.549Z,5.17
2022-08-08T05:25:27.616Z,5.37
2022-08-08T05:28:09.026Z,4.67
2022-08-08T05:30:39.615Z,5.27
2022-08-08T05:33:16.901Z,5.40
2022-08-08T05:35:46.298Z,4.33
2022-08-08T05:38:31.702Z,5.10
2022-08-08T05:41:07.331Z,4.10
2022-08-08T05:43:39.403Z,5.03
2022-08-08T05:46:25.832Z,5.50
2022-08-08T05:48:55.032Z,5.10
2022-08-08T05:51:26.049Z,4.97
2022-08-08T05:54:43.063Z,4.53
2022-08-08T05:56:47.510Z,4.93
2022-08-08T05:59:59.642Z,4.73
2022-08-08T06:02:12.553Z,4.50
2022-08-08T06:04:40.545Z,5.10
2022-08-08T06:07:14.927Z,4.83
2022-08-08T06:09:59.523Z,4.67
2022-08-08T06:12:31.530Z,4.80
2022-08-08T06:15:03.021Z,4.17
2022-08-08T06:17:50.823Z,5.03
2022-08-08T06:20:22.095Z,4.90
2022-08-08T06:22:51.035Z,4.93
2022-08-08T06:25:33.250Z,5.20
2022-08-08T06:28:12.864Z,4.77
2022-08-08T06:30:40.822Z,4.93
2022-08-08T06:33:13.193Z,4.30
2022-08-08T06:36:04.272Z,4.87
2022-08-08T06:38:35.701Z,4.60
2022-08-08T06:41:04.852Z,4.60
2022-08-08T06:43:35.727Z,4.20
2022-08-08T06:46:08.840Z,5.13
2022-08-08T06:48:42.651Z,4.70
2022-08-08T06:51:12.481Z,5.27
2022-08-08T06:53:50.691Z,5.80
2022-08-08T06:56:26.323Z,4.67
2022-08-08T06:58:54.548Z,4.50
2022-08-08T07:02:21.251Z,5.07
2022-08-08T07:04:38.646Z,4.90
2022-08-08T07:07:10.397Z,5.77
2022-08-08T07:09:45.269Z,6.13
2022-08-08T07:12:15.730Z,5.30
2022-08-08T07:14:51.517Z,5.13
2022-08-08T07:17:25.033Z,5.10
2022-08-08T07:20:11.409Z,5.67
2022-08-08T07:22:46.233Z,4.67
2022-08-08T07:25:17.403Z,5.07
2022-08-08T07:28:02.186Z,5.90
2022-08-08T07:30:36.265Z,5.13
2022-08-08T07:33:04.168Z,5.43
2022-08-08T07:35:35.644Z,4.80
2022-08-08T07:38:10.312Z,5.03
2022-08-08T07:40:55.946Z,4.43
2022-08-08T07:43:37.068Z,4.30
2022-08-08T07:46:23.269Z,4.60
2022-08-08T07:48:52.468Z,4.53
2022-08-08T07:51:24.057Z,4.83
2022-08-08T07:54:12.067Z,3.80
2022-08-08T07:56:56.016Z,4.47
2022-08-08T07:59:25.691Z,4.37
2022-08-08T08:02:34.551Z,4.33
2022-08-08T08:04:49.111Z,4.03
2022-08-08T08:07:25.979Z,3.85
2022-08-08T08:10:03.125Z,3.97
2022-08-08T08:12:43.118Z,4.28
2022-08-08T08:15:16.294Z,3.63
2022-08-08T08:17:47.649Z,3.55
2022-08-08T08:20:19.375Z,3.50
2022-08-08T08:22:49.513Z,4.20
2022-08-08T08:25:19.281Z,3.70
2022-08-08T08:27:47.369Z,3.25
2022-08-08T08:30:15.662Z,3.80
2022-08-08T08:32:51.324Z,4.22
2022-08-08T08:35:21.719Z,3.50
2022-08-08T08:38:17.522Z,3.92
2022-08-08T08:40:48.619Z,3.65
2022-08-08T08:43:20.160Z,3.85
2022-08-08T08:45:57.417Z,3.50
2022-08-08T08:48:25.308Z,3.45
2022-08-08T08:50:54.443Z,3.47
2022-08-08T08:53:27.340Z,3.40
2022-08-08T08:56:23.918Z,3.60
2022-08-08T08:58:54.434Z,3.72
2022-08-08T09:01:27.818Z,2.95
2022-08-08T09:04:00.270Z,3.45
2022-08-08T09:06:34.307Z,2.78
2022-08-08T09:09:07.322Z,2.53
2022-08-08T09:12:06.196Z,2.72
2022-08-08T09:14:42.629Z,3.58
2022-08-08T09:17:18.260Z,3.28
2022-08-08T09:21:56.921Z,2.55
2022-08-08T09:22:34.646Z,3.05
2022-08-08T09:25:03.923Z,2.95
2022-08-08T09:27:56.766Z,2.70
2022-08-08T09:30:22.981Z,3.28
2022-08-08T09:33:12.457Z,3.30
2022-08-08T09:35:48.668Z,2.58
2022-08-08T09:38:27.785Z,3.05
2022-08-08T09:41:01.174Z,3.00
2022-08-08T09:44:04.651Z,2.95
2022-08-08T09:46:30.449Z,3.25
2022-08-08T09:48:58.443Z,3.03
2022-08-08T09:52:06.154Z,2.90
2022-08-08T09:54:37.786Z,3.10
2022-08-08T09:57:16.474Z,3.30
2022-08-08T10:00:02.271Z,3.30
2022-08-08T10:02:40.371Z,3.40
2022-08-08T10:05:15.043Z,3.20
2022-08-08T10:08:01.301Z,3.30
2022-08-08T10:10:30.329Z,3.42
2022-08-08T10:13:14.225Z,2.80
2022-08-08T10:16:01.175Z,3.20
2022-08-08T10:18:30.694Z,3.72
2022-08-08T10:21:03.446Z,3.17
2022-08-08T10:23:44.997Z,3.53
2022-08-08T10:26:30.835Z,3.42
2022-08-08T10:29:07.370Z,2.60
2022-08-08T10:31:47.500Z,3.50
2022-08-08T10:34:20.122Z,3.13
2022-08-08T10:36:48.843Z,3.10
2022-08-08T10:39:18.765Z,3.50
2022-08-08T10:41:59.054Z,3.55
2022-08-08T10:44:43.839Z,2.97
2022-08-08T10:47:14.276Z,3.30
2022-08-08T10:50:01.403Z,3.47
2022-08-08T10:52:31.486Z,3.38
2022-08-08T10:54:59.867Z,3.25
2022-08-08T10:57:45.388Z,3.58
2022-08-08T11:00:22.476Z,2.95
2022-08-08T11:02:50.154Z,3.55
2022-08-08T11:05:18.077Z,3.45
2022-08-08T11:08:37.005Z,3.75
2022-08-08T11:10:35.439Z,2.78
2022-08-08T11:13:28.839Z,2.55
2022-08-08T11:15:58.733Z,3.28
2022-08-08T11:18:29.914Z,3.03
2022-08-08T11:20:59.495Z,3.30
2022-08-08T11:23:31.211Z,2.90
2022-08-08T11:25:59.507Z,3.00
2022-08-08T11:28:29.603Z,3.47
2022-08-08T11:31:00.726Z,3.47
2022-08-08T11:33:51.902Z,3.13
2022-08-08T11:36:19.542Z,3.45
2022-08-08T11:38:54.878Z,3.72
2022-08-08T11:41:23.262Z,2.80
2022-08-08T11:43:51.959Z,2.78
2022-08-08T11:46:24.369Z,3.50
2022-08-08T11:48:51.963Z,2.85
2022-08-08T11:51:38.137Z,3.72
2022-08-08T11:54:09.872Z,3.93
2022-08-08T11:56:57.814Z,3.40
2022-08-08T11:59:57.736Z,3.40
2022-08-08T12:02:32.394Z,3.67
2022-08-08T12:05:12.531Z,3.10
2022-08-08T12:07:46.004Z,2.80
2022-08-08T12:10:17.768Z,2.97
2022-08-08T12:12:48.004Z,3.00
2022-08-08T12:15:26.529Z,3.37
2022-08-08T12:17:55.595Z,3.17
2022-08-08T12:20:23.356Z,2.77
2022-08-08T12:22:51.252Z,3.27
2022-08-08T12:25:21.457Z,3.20
2022-08-08T12:28:14.360Z,3.10
2022-08-08T12:30:47.894Z,3.27
2022-08-08T12:33:19.528Z,3.40
2022-08-08T12:35:52.507Z,3.10
2022-08-08T12:38:31.255Z,3.73
2022-08-08T12:41:10.574Z,4.20
2022-08-08T12:43:59.687Z,4.00
2022-08-08T12:46:28.772Z,4.07
2022-08-08T12:49:22.228Z,3.97
2022-08-08T12:51:50.015Z,4.13
2022-08-08T12:54:27.498Z,3.50
2022-08-08T12:56:56.280Z,4.17
2022-08-08T12:59:36.292Z,3.80
2022-08-08T13:02:21.415Z,3.80
2022-08-08T13:04:52.445Z,3.97
2022-08-08T13:08:03.830Z,3.90
2022-08-08T13:10:10.665Z,3.90
2022-08-08T13:12:44.374Z,4.00
2022-08-08T13:15:15.574Z,3.20
2022-08-08T13:17:53.969Z,3.57
2022-08-08T13:20:32.162Z,3.20
2022-08-08T13:23:35.879Z,3.70
2022-08-08T13:25:50.333Z,4.20
2022-08-08T13:28:29.090Z,4.47
2022-08-08T13:30:59.705Z,4.33
2022-08-08T13:33:29.156Z,3.90
2022-08-08T13:36:11.598Z,4.57
2022-08-08T13:38:39.920Z,4.23
2022-08-08T13:41:15.890Z,3.40
2022-08-08T13:43:46.631Z,4.00
2022-08-08T13:46:27.152Z,3.10
2022-08-08T13:50:33.546Z,3.50
2022-08-08T13:51:53.726Z,4.13
2022-08-08T13:54:21.102Z,3.10
2022-08-08T13:57:00.197Z,3.50
2022-08-08T13:59:32.758Z,3.53
2022-08-08T14:02:02.777Z,3.43
2022-08-08T14:04:34.951Z,3.53
2022-08-08T14:07:04.864Z,4.10
2022-08-08T14:10:04.485Z,3.07
2022-08-08T14:12:19.829Z,3.80
2022-08-08T14:14:47.339Z,3.50
2022-08-08T14:17:22.761Z,3.33
2022-08-08T14:20:06.593Z,3.20
2022-08-08T14:22:38.550Z,3.30
2022-08-08T14:25:15.396Z,3.87
2022-08-08T14:27:59.687Z,3.30
2022-08-08T14:30:33.531Z,3.43
2022-08-08T14:33:01.045Z,3.90
2022-08-08T14:35:35.849Z,4.07
2022-08-08T14:38:09.588Z,3.90
2022-08-08T14:40:59.022Z,3.30
2022-08-08T14:44:02.786Z,4.13
2022-08-08T14:46:14.834Z,3.93
2022-08-08T14:48:56.890Z,4.37
2022-08-08T14:51:30.962Z,3.90
2022-08-08T14:54:16.179Z,3.80
2022-08-08T14:56:55.706Z,4.40
2022-08-08T14:59:43.548Z,3.93
2022-08-08T15:02:14.205Z,3.57
2022-08-08T15:04:42.743Z,3.80
2022-08-08T15:07:24.286Z,4.00
2022-08-08T15:09:58.484Z,3.70
2022-08-08T15:12:27.578Z,3.40
2022-08-08T15:14:55.244Z,3.77
2022-08-08T15:17:22.997Z,3.47
2022-08-08T15:19:50.574Z,3.73
2022-08-08T15:22:23.637Z,3.53
2022-08-08T15:24:51.186Z,4.20
2022-08-08T15:28:04.197Z,4.23
2022-08-08T15:30:08.055Z,3.90
2022-08-08T15:32:39.599Z,3.80
2022-08-08T15:35:07.606Z,4.33
2022-08-08T15:37:34.894Z,4.07
2022-08-08T15:40:02.178Z,3.83
2022-08-08T15:42:39.638Z,3.83
2022-08-08T15:45:07.407Z,3.50
2022-08-08T15:47:34.635Z,3.60
2022-08-08T15:50:02.330Z,3.70
2022-08-08T15:52:29.848Z,3.10
2022-08-08T15:55:00.127Z,3.17
2022-08-08T15:57:35.305Z,3.43
2022-08-08T16:00:26.845Z,3.30
2022-08-08T16:02:55.878Z,3.67
2022-08-08T16:05:25.303Z,3.30
2022-08-08T16:08:03.325Z,3.90
2022-08-08T16:13:02.009Z,4.33
2022-08-08T16:13:34.165Z,3.83
2022-08-08T16:16:13.255Z,4.00
2022-08-08T16:18:57.301Z,3.13
2022-08-08T16:21:27.631Z,3.30
2022-08-08T16:23:55.850Z,3.10
2022-08-08T16:26:34.216Z,3.17
2022-08-08T16:29:03.608Z,3.17
2022-08-08T16:31:37.368Z,3.33
2022-08-08T16:34:04.906Z,3.13
2022-08-08T16:36:34.036Z,3.00
2022-08-08T16:39:01.592Z,3.63
2022-08-08T16:41:37.327Z,3.07
2022-08-08T16:44:04.865Z,3.00
2022-08-08T16:46:39.195Z,3.40
2022-08-08T16:49:14.297Z,3.60
2022-08-08T16:55:01.409Z,3.70
2022-08-08T16:55:19.494Z,3.43
2022-08-08T16:57:27.925Z,3.37
2022-08-08T17:00:06.280Z,3.13
2022-08-08T17:02:39.334Z,3.30
2022-08-08T17:05:13.763Z,2.80
2022-08-08T17:07:41.878Z,3.50
2022-08-08T17:10:10.042Z,3.30
2022-08-08T17:12:41.502Z,3.13
2022-08-08T17:15:17.622Z,3.53
2022-08-08T17:18:03.772Z,3.00
2022-08-08T17:20:33.157Z,3.07
2022-08-08T17:23:25.673Z,2.63
2022-08-08T17:25:55.070Z,3.70
2022-08-08T17:28:34.216Z,3.30
2022-08-08T17:31:02.652Z,3.37
2022-08-08T17:34:53.830Z,3.13
2022-08-08T17:36:38.282Z,3.23
2022-08-08T17:40:04.266Z,2.70
2022-08-08T17:42:12.766Z,3.37
2022-08-08T17:44:44.051Z,2.83
2022-08-08T17:47:24.080Z,2.60
2022-08-08T17:50:01.207Z,2.90
2022-08-08T17:52:33.403Z,2.40
2022-08-08T17:55:05.587Z,3.40
2022-08-08T17:57:49.596Z,3.00
2022-08-08T18:00:21.295Z,2.67
2022-08-08T18:03:07.473Z,3.10
2022-08-08T18:05:47.912Z,3.20
2022-08-08T18:08:24.852Z,2.87
2022-08-08T18:11:05.811Z,3.37
2022-08-08T18:13:35.082Z,2.83
2022-08-08T18:16:09.313Z,3.10
2022-08-08T18:18:42.516Z,2.67
2022-08-08T18:21:24.962Z,2.60
2022-08-08T18:24:01.023Z,3.03
2022-08-08T18:26:29.351Z,2.80
2022-08-08T18:28:56.604Z,2.40
2022-08-08T18:31:25.194Z,2.80
2022-08-08T18:34:12.204Z,2.80
2022-08-08T18:36:44.609Z,3.40
2022-08-08T18:39:16.634Z,2.93
2022-08-08T18:41:59.661Z,2.20
2022-08-08T18:44:34.658Z,2.50
2022-08-08T18:47:02.951Z,3.10
2022-08-08T18:49:32.682Z,3.00
2022-08-08T18:52:08.629Z,3.00
2022-08-08T18:54:59.418Z,3.30
2022-08-08T18:57:28.561Z,2.87
2022-08-08T18:59:59.599Z,2.70
2022-08-08T19:02:29.682Z,3.03
2022-08-08T19:04:57.241Z,2.67
2022-08-08T19:07:29.676Z,2.77
2022-08-08T19:10:14.760Z,3.00
2022-08-08T19:12:44.737Z,2.83
2022-08-08T19:15:21.643Z,2.70
2022-08-08T19:18:33.445Z,3.50
2022-08-08T19:20:39.397Z,2.67
2022-08-08T19:23:07.291Z,3.17
2022-08-08T19:26:19.488Z,2.97
2022-08-08T19:28:24.810Z,3.40
2022-08-08T19:31:04.097Z,3.57
2022-08-08T19:33:39.455Z,2.97
2022-08-08T19:36:25.208Z,3.13
2022-08-08T19:38:55.231Z,2.57
2022-08-08T19:41:27.103Z,2.83
2022-08-08T19:44:03.468Z,2.70
2022-08-08T19:46:33.608Z,2.83
2022-08-08T19:49:01.075Z,3.00
2022-08-08T19:51:34.154Z,2.90
2022-08-08T19:54:07.701Z,2.40
2022-08-08T19:56:40.417Z,2.83
2022-08-08T19:59:08.302Z,2.63
2022-08-08T20:02:01.109Z,2.67
2022-08-08T20:04:23.767Z,2.80
2022-08-08T20:06:51.138Z,2.47
2022-08-08T20:09:23.002Z,2.43
2022-08-08T20:11:52.811Z,2.27
2022-08-08T20:14:33.917Z,2.70
2022-08-08T20:17:02.898Z,2.70
2022-08-08T20:19:34.516Z,2.80
2022-08-08T20:22:13.265Z,2.40
2022-08-08T20:24:48.263Z,2.70
2022-08-08T20:27:20.451Z,2.43
2022-08-08T20:30:00.187Z,2.57
2022-08-08T20:32:28.366Z,2.53
2022-08-08T20:35:00.715Z,2.70
2022-08-08T20:37:47.052Z,2.30
2022-08-08T20:40:17.058Z,2.37
2022-08-08T20:42:54.648Z,2.70
2022-08-08T20:45:55.154Z,2.57
2022-08-08T20:48:09.048Z,2.77
2022-08-08T20:50:36.214Z,2.60
2022-08-08T20:53:06.891Z,3.00
2022-08-08T20:55:45.346Z,3.20
2022-08-08T20:58:23.322Z,3.23
2022-08-08T21:00:50.943Z,2.23
2022-08-08T21:03:18.105Z,2.77
2022-08-08T21:05:49.256Z,2.60
2022-08-08T21:08:36.166Z,3.10
2022-08-08T21:11:13.587Z,2.90
2022-08-08T21:13:42.084Z,3.27
2022-08-08T21:16:20.291Z,3.10
2022-08-08T21:18:48.141Z,2.73
2022-08-08T21:21:20.436Z,3.20
2022-08-08T21:24:09.321Z,3.40
2022-08-08T21:26:46.592Z,3.63
2022-08-08T21:29:21.506Z,3.60
2022-08-08T21:31:58.715Z,2.90
2022-08-08T21:34:29.976Z,3.33
2022-08-08T21:36:58.480Z,2.70
2022-08-08T21:39:41.371Z,3.83
2022-08-08T21:42:12.939Z,3.23
2022-08-08T21:44:58.970Z,3.10
2022-08-08T21:48:07.323Z,2.90
2022-08-08T21:50:15.272Z,2.90
2022-08-08T21:54:32.945Z,3.20
2022-08-08T21:56:19.913Z,2.70
2022-08-08T21:58:16.802Z,3.20
2022-08-08T22:00:45.681Z,2.80
2022-08-08T22:03:17.528Z,2.73
2022-08-08T22:05:45.228Z,3.30
2022-08-08T22:08:15.565Z,2.63
2022-08-08T22:10:51.155Z,3.47
2022-08-08T22:13:21.712Z,2.67
2022-08-08T22:15:58.806Z,3.00
2022-08-08T22:18:27.993Z,3.03
2022-08-08T22:20:55.133Z,2.93
2022-08-08T22:23:25.276Z,2.63
2022-08-08T22:26:27.585Z,2.63
2022-08-08T22:29:13.197Z,3.03
2022-08-08T22:31:35.194Z,2.37
2022-08-08T22:34:12.403Z,2.97
2022-08-08T22:36:41.412Z,3.23
2022-08-08T22:39:18.923Z,3.50
2022-08-08T22:41:46.695Z,3.10
2022-08-08T22:44:16.722Z,3.30
2022-08-08T22:46:45.782Z,3.13
2022-08-08T22:49:19.840Z,3.20
2022-08-08T22:51:47.480Z,2.87
2022-08-08T22:54:31.406Z,3.57
2022-08-08T22:57:01.475Z,2.50
2022-08-08T22:59:36.270Z,3.20
2022-08-08T23:02:19.685Z,2.80
2022-08-08T23:04:47.027Z,3.07
2022-08-08T23:09:55.235Z,2.90
2022-08-08T23:12:40.109Z,2.90
2022-08-08T23:16:37.038Z,3.37
2022-08-08T23:17:58.408Z,3.33
2022-08-08T23:20:27.273Z,2.73
2022-08-08T23:22:54.811Z,2.80
2022-08-08T23:25:22.026Z,2.80
2022-08-08T23:27:49.494Z,3.03
2022-08-08T23:30:21.673Z,2.33
2022-08-08T23:32:49.156Z,2.87
2022-08-08T23:35:18.822Z,2.90
2022-08-08T23:38:03.250Z,3.43
2022-08-08T23:40:30.943Z,2.63
2022-08-08T23:42:58.392Z,2.93
2022-08-08T23:49:06.561Z,2.30
2022-08-08T23:49:07.965Z,3.00
2022-08-08T23:51:05.817Z,2.90
2022-08-08T23:54:05.287Z,3.07
2022-08-08T23:56:32.311Z,2.43
2022-08-08T23:59:02.333Z,2.90
